Time;durP1;ratioP1;P1;durP2;ratioP2;P2;SDS_P1;SDS_P2;PMS_P1;PMS_P2;Temp;Humidity;BMP_temperature;BMP_pressure;BME280_temperature;BME280_humidity;BME280_pressure;Samples;Min_cycle;Max_cycle;Signal;HPM_P1;HPM_P2
2022/06/04 00:00:51;;;;;;;8.10;4.53;;;;;;;24.63;59.34;99941.50;4362901;32;33369;-85
2022/06/04 00:03:19;;;;;;;8.13;5.10;;;;;;;24.55;60.25;99928.09;4363118;32;34452;-85
2022/06/04 00:05:49;;;;;;;9.45;4.80;;;;;;;24.49;60.65;99923.66;4350622;32;34358;-85
2022/06/04 00:08:17;;;;;;;7.22;4.80;;;;;;;24.52;60.69;99923.06;4362881;32;34124;-85
2022/06/04 00:16:26;;;;;;;8.70;4.97;;;;;;;24.48;60.58;99907.97;4352465;32;33895;-85
2022/06/04 00:18:54;;;;;;;8.45;4.68;;;;;;;24.39;61.09;99898.50;4362638;32;33390;-84
2022/06/04 00:21:23;;;;;;;9.02;4.85;;;;;;;24.29;61.83;99891.03;4362866;32;33322;-85
2022/06/04 00:23:51;;;;;;;12.73;5.82;;;;;;;24.36;61.77;99887.03;4362803;32;33589;-85
2022/06/04 00:26:19;;;;;;;8.90;5.10;;;;;;;24.35;61.70;99882.56;4362663;32;35341;-85
2022/06/04 00:28:47;;;;;;;11.48;4.82;;;;;;;24.38;61.71;99893.19;4361949;32;34128;-84
2022/06/04 00:31:18;;;;;;;9.60;5.22;;;;;;;24.34;61.85;99897.72;4362512;32;33344;-85
2022/06/04 00:33:45;;;;;;;8.57;5.30;;;;;;;24.37;61.89;99897.97;4362224;32;33990;-85
2022/06/04 00:36:13;;;;;;;7.30;5.07;;;;;;;24.19;62.83;99893.87;4362225;32;34323;-84
2022/06/04 00:38:41;;;;;;;11.43;6.07;;;;;;;24.25;62.55;99903.97;4349905;32;33859;-85
2022/06/04 00:41:29;;;;;;;10.68;5.47;;;;;;;24.08;63.67;99895.09;4349899;32;31904;-85
2022/06/04 00:44:14;;;;;;;10.23;5.62;;;;;;;24.12;63.59;99899.00;4362191;32;33717;-86
2022/06/04 00:46:42;;;;;;;12.32;5.18;;;;;;;24.19;63.15;99895.84;4352723;32;32756;-86
2022/06/04 00:49:20;;;;;;;9.68;5.62;;;;;;;24.11;63.78;99893.66;4377339;32;34065;-86
2022/06/04 00:51:50;;;;;;;8.20;5.10;;;;;;;24.12;63.58;99892.53;4364559;32;31733;-85
2022/06/04 00:54:19;;;;;;;8.05;4.87;;;;;;;24.08;63.72;99885.84;4364625;32;33821;-85
2022/06/04 00:57:07;;;;;;;10.45;5.03;;;;;;;23.97;64.15;99866.34;4376711;32;34701;-86
2022/06/04 00:59:41;;;;;;;8.95;4.87;;;;;;;23.99;64.13;99871.66;4377103;32;34933;-86
2022/06/04 01:02:14;;;;;;;7.82;4.78;;;;;;;24.14;63.54;99853.81;4364748;32;31762;-86
2022/06/04 01:04:48;;;;;;;7.87;4.28;;;;;;;24.01;63.94;99860.97;4364434;32;32461;-87
2022/06/04 01:07:25;;;;;;;9.98;5.00;;;;;;;24.03;63.80;99857.88;4377366;32;35242;-86
2022/06/04 01:10:01;;;;;;;8.35;4.37;;;;;;;24.09;63.33;99849.09;4377550;32;34640;-88
2022/06/04 01:12:38;;;;;;;7.03;4.72;;;;;;;24.05;63.65;99836.78;4364915;32;33272;-87
2022/06/04 01:15:08;;;;;;;9.35;5.10;;;;;;;24.12;63.44;99839.25;4364854;32;32365;-87
2022/06/04 01:17:43;;;;;;;9.57;5.55;;;;;;;23.98;64.03;99828.75;4377399;32;35228;-87
2022/06/04 01:20:33;;;;;;;8.20;5.47;;;;;;;23.93;64.38;99822.34;4365034;32;33997;-87
2022/06/04 01:23:29;;;;;;;8.60;5.50;;;;;;;24.04;64.03;99809.09;4377036;32;33263;-86
2022/06/04 01:26:27;;;;;;;11.23;5.12;;;;;;;23.87;64.79;99810.34;4364862;32;32363;-87
2022/06/04 01:29:06;;;;;;;9.15;5.75;;;;;;;24.00;64.28;99797.63;4364784;32;34427;-87
2022/06/04 01:32:13;;;;;;;8.10;5.75;;;;;;;23.85;64.65;99817.37;4364550;32;33465;-87
2022/06/04 01:34:51;;;;;;;8.98;5.43;;;;;;;23.92;64.11;99818.72;4352391;32;31852;-87
2022/06/04 01:37:27;;;;;;;9.15;6.03;;;;;;;23.87;64.31;99827.16;4351769;32;33151;-88
2022/06/04 01:42:43;;;;;;;7.97;5.03;;;;;;;23.86;63.97;99836.72;4366328;32;32663;-86
2022/06/04 01:45:15;;;;;;;8.93;5.35;;;;;;;23.83;64.10;99836.47;4376944;32;32894;-87
2022/06/04 01:47:44;;;;;;;8.13;5.85;;;;;;;23.91;63.87;99850.69;4361750;32;33729;-88
2022/06/04 01:50:16;;;;;;;9.00;5.28;;;;;;;23.91;63.82;99850.69;4362046;32;35001;-87
2022/06/04 01:52:45;;;;;;;8.32;5.12;;;;;;;23.84;64.22;99860.56;4361856;32;34829;-87
2022/06/04 01:55:26;;;;;;;7.28;4.95;;;;;;;23.71;64.80;99861.22;4361988;32;33517;-88
2022/06/04 01:58:06;;;;;;;7.43;5.03;;;;;;;23.78;64.88;99848.53;4361579;32;33734;-88
2022/06/04 02:00:41;;;;;;;8.43;5.22;;;;;;;23.70;65.35;99848.31;4349750;32;33975;-87
2022/06/04 02:03:13;;;;;;;8.60;5.30;;;;;;;23.61;65.64;99846.13;4361794;32;34456;-87
2022/06/04 02:05:48;;;;;;;10.27;6.20;;;;;;;23.57;65.87;99838.59;4361859;32;34070;-87
2022/06/04 02:08:26;;;;;;;7.57;4.97;;;;;;;23.48;66.28;99831.91;4337469;32;32150;-88
2022/06/04 02:11:15;;;;;;;8.93;5.78;;;;;;;23.48;66.29;99829.09;4361784;32;34573;-88
2022/06/04 02:13:44;;;;;;;8.00;5.18;;;;;;;23.54;65.95;99833.59;4361487;32;33390;-88
2022/06/04 02:16:20;;;;;;;8.05;5.60;;;;;;;23.55;65.61;99824.88;4361889;32;32695;-88
2022/06/04 02:18:49;;;;;;;8.40;5.57;;;;;;;23.60;65.51;99821.22;4361688;32;33720;-88
2022/06/04 02:21:18;;;;;;;9.15;5.62;;;;;;;23.43;66.34;99818.78;4349393;32;33019;-87
2022/06/04 02:23:46;;;;;;;7.95;5.62;;;;;;;23.59;65.68;99817.56;4361657;32;34049;-86
2022/06/04 02:26:15;;;;;;;10.52;5.00;;;;;;;23.59;65.45;99813.94;4361677;32;31882;-87
2022/06/04 02:28:43;;;;;;;7.10;4.78;;;;;;;23.61;65.05;99811.69;4361233;32;34272;-87
2022/06/04 02:31:24;;;;;;;8.90;5.22;;;;;;;23.61;64.39;99822.88;4349221;32;35266;-86
2022/06/04 02:34:11;;;;;;;12.93;5.07;;;;;;;23.54;64.23;99820.41;4348649;32;32281;-87
2022/06/04 02:36:44;;;;;;;8.40;4.95;;;;;;;23.38;65.45;99824.44;4349017;32;32708;-87
2022/06/04 02:39:15;;;;;;;10.45;5.35;;;;;;;23.40;65.59;99813.75;4361483;32;34764;-86
2022/06/04 02:41:49;;;;;;;7.10;5.30;;;;;;;23.53;65.25;99820.66;4361251;32;34276;-88
2022/06/04 02:44:24;;;;;;;9.68;5.75;;;;;;;23.55;65.26;99818.44;4336994;32;32398;-87
2022/06/04 02:47:07;;;;;;;8.68;5.18;;;;;;;23.48;65.71;99821.53;4364490;32;33947;-88
2022/06/04 02:50:02;;;;;;;7.87;5.12;;;;;;;23.46;65.76;99828.56;4364049;32;33783;-88
2022/06/04 02:52:31;;;;;;;9.20;5.70;;;;;;;23.40;66.34;99821.34;4362035;32;34711;-87
2022/06/04 02:55:04;;;;;;;11.18;5.40;;;;;;;23.43;66.05;99823.53;4365754;32;34576;-87
2022/06/04 02:57:33;;;;;;;12.98;5.85;;;;;;;23.45;65.95;99822.12;4365923;32;33247;-86
2022/06/04 03:00:03;;;;;;;9.77;5.28;;;;;;;23.26;66.62;99813.59;4353784;32;33040;-87
2022/06/04 03:02:32;;;;;;;8.82;6.05;;;;;;;23.10;67.51;99800.81;4365775;32;34432;-87
2022/06/04 03:05:09;;;;;;;8.82;6.12;;;;;;;23.19;67.16;99798.22;4365979;32;34004;-87
2022/06/04 03:07:41;;;;;;;12.30;6.85;;;;;;;23.07;67.75;99798.56;4365803;32;31566;-87
2022/06/04 03:10:13;;;;;;;10.27;6.25;;;;;;;23.16;67.45;99802.44;4365540;32;33705;-86
2022/06/04 03:12:41;;;;;;;11.68;5.97;;;;;;;23.27;67.26;99804.06;4365765;32;33838;-87
2022/06/04 03:15:12;;;;;;;8.90;6.50;;;;;;;23.21;67.01;99819.22;4364939;32;33024;-87
2022/06/04 03:17:42;;;;;;;13.55;6.93;;;;;;;23.27;66.91;99820.88;4377888;32;32080;-87
2022/06/04 03:20:15;;;;;;;10.70;6.75;;;;;;;23.19;67.75;99821.47;4365752;32;33087;-87
2022/06/04 03:22:43;;;;;;;10.43;7.30;;;;;;;23.15;67.94;99820.38;4365672;32;33760;-86
2022/06/04 03:25:11;;;;;;;12.23;7.72;;;;;;;23.18;68.32;99819.78;4365652;32;33242;-87
2022/06/04 03:27:39;;;;;;;12.77;8.48;;;;;;;23.09;69.00;99815.94;4365730;32;34105;-87
2022/06/04 03:30:08;;;;;;;16.60;9.52;;;;;;;22.96;69.81;99823.00;4365491;32;33764;-87
2022/06/04 03:32:36;;;;;;;14.45;8.95;;;;;;;22.96;69.74;99814.59;4353389;32;33838;-87
2022/06/04 03:35:05;;;;;;;14.13;9.30;;;;;;;22.71;70.94;99811.06;4364953;32;33187;-88
2022/06/04 03:37:34;;;;;;;16.65;11.02;;;;;;;22.49;71.94;99815.03;4365420;32;32945;-87
2022/06/04 03:40:04;;;;;;;16.30;11.15;;;;;;;22.83;70.28;99826.41;4365645;32;33293;-87
2022/06/04 03:42:32;;;;;;;15.05;9.48;;;;;;;22.70;71.51;99812.19;4378179;32;34273;-87
2022/06/04 03:44:59;;;;;;;12.95;9.52;;;;;;;22.67;71.77;99808.00;4365512;32;32594;-88
2022/06/04 03:47:28;;;;;;;14.32;10.05;;;;;;;22.76;71.17;99809.06;4362807;32;33404;-88
2022/06/04 03:49:58;;;;;;;14.73;9.80;;;;;;;22.74;71.48;99807.69;4350439;32;33792;-88
2022/06/04 03:52:25;;;;;;;16.15;9.55;;;;;;;22.74;71.65;99807.69;4362889;32;34461;-90
2022/06/04 03:54:53;;;;;;;14.57;9.68;;;;;;;22.65;71.85;99813.88;4362856;32;34354;-91
2022/06/04 04:00:18;;;;;;;15.10;10.07;;;;;;;22.25;74.11;99816.78;4352488;32;32385;-90
2022/06/04 04:02:51;;;;;;;14.43;9.93;;;;;;;22.28;73.94;99805.88;4350061;32;33086;-90
2022/06/04 04:05:23;;;;;;;12.55;9.50;;;;;;;22.44;72.91;99801.06;4362762;32;34052;-90
2022/06/04 04:07:51;;;;;;;14.25;9.80;;;;;;;22.52;72.91;99810.84;4362752;32;33107;-93
2022/06/04 04:10:21;;;;;;;13.48;9.65;;;;;;;22.68;72.01;99807.72;4361619;32;32142;-91
2022/06/04 04:12:51;;;;;;;12.07;8.75;;;;;;;22.78;71.53;99815.19;4362447;32;33023;-91
2022/06/04 04:15:22;;;;;;;14.82;9.70;;;;;;;22.56;72.49;99814.75;4362156;32;32185;-92
2022/06/04 04:17:50;;;;;;;12.77;9.15;;;;;;;22.39;72.86;99817.03;4350442;32;32822;-91
2022/06/04 04:20:21;;;;;;;14.35;9.07;;;;;;;22.35;73.38;99819.56;4362542;32;33653;-91
2022/06/04 04:22:49;;;;;;;11.73;9.20;;;;;;;22.32;73.49;99818.16;4362302;32;34421;-87
2022/06/04 04:25:19;;;;;;;14.52;8.85;;;;;;;22.41;73.16;99824.03;4362706;32;33865;-92
2022/06/04 04:27:47;;;;;;;13.75;8.63;;;;;;;22.29;73.87;99827.13;4362577;32;33278;-89
2022/06/04 04:30:18;;;;;;;15.10;8.38;;;;;;;22.14;74.83;99837.47;4350266;32;32148;-89
2022/06/04 04:32:46;;;;;;;13.77;8.55;;;;;;;22.50;73.10;99892.25;4362113;32;34376;-91
2022/06/04 04:35:20;;;;;;;15.35;8.88;;;;;;;22.84;70.79;99931.63;4361535;32;34133;-87
2022/06/04 04:37:48;;;;;;;18.33;9.35;;;;;;;22.79;71.04;99909.25;4349957;32;33146;-86
2022/06/04 04:40:18;;;;;;;17.48;8.85;;;;;;;22.63;71.72;99890.81;4362460;32;33092;-87
2022/06/04 04:42:48;;;;;;;11.82;7.93;;;;;;;22.59;71.93;99884.94;4361156;32;34608;-85
2022/06/04 04:45:17;;;;;;;12.37;7.87;;;;;;;22.43;72.68;99876.88;4349755;32;32552;-85
2022/06/04 04:47:46;;;;;;;13.00;7.37;;;;;;;22.55;72.16;99871.81;4371318;32;34166;-84
2022/06/04 04:50:20;;;;;;;10.48;7.20;;;;;;;22.65;71.59;99878.22;4364503;32;33274;-83
2022/06/04 04:52:48;;;;;;;11.23;6.75;;;;;;;22.72;71.24;99882.69;4377402;32;34386;-83
2022/06/04 04:55:16;;;;;;;17.62;10.98;;;;;;;22.70;71.15;99873.75;4378485;32;34098;-82
2022/06/04 04:57:44;;;;;;;13.88;8.93;;;;;;;22.73;71.16;99874.00;4377066;32;33232;-82
2022/06/04 05:00:15;;;;;;;11.52;6.30;;;;;;;22.76;71.00;99864.19;4365166;32;34515;-82
2022/06/04 05:02:44;;;;;;;11.15;6.50;;;;;;;22.78;70.89;99868.38;4376921;32;34412;-81
2022/06/04 05:05:13;;;;;;;10.88;7.37;;;;;;;22.75;71.04;99868.12;4377408;32;34027;-82
2022/06/04 05:07:41;;;;;;;12.40;6.68;;;;;;;22.74;71.08;99870.09;4364959;32;31560;-82
2022/06/04 05:10:09;;;;;;;13.80;6.97;;;;;;;22.34;72.78;99873.81;4376908;32;34511;-82
2022/06/04 05:12:37;;;;;;;10.70;6.55;;;;;;;22.66;71.14;99860.31;4378367;32;34429;-81
2022/06/04 05:15:06;;;;;;;11.48;6.45;;;;;;;22.68;71.02;99851.63;4362846;32;33786;-82
2022/06/04 05:17:36;;;;;;;11.63;6.85;;;;;;;22.59;71.49;99861.75;4376960;32;34104;-82
2022/06/04 05:20:04;;;;;;;10.57;6.65;;;;;;;22.67;71.15;99861.16;4364960;32;33711;-82
2022/06/04 05:22:32;;;;;;;14.40;7.12;;;;;;;22.71;70.96;99861.44;4377156;32;34319;-81
2022/06/04 05:25:01;;;;;;;10.98;6.15;;;;;;;22.61;71.52;99876.28;4364799;32;32565;-82
2022/06/04 05:27:29;;;;;;;11.50;7.65;;;;;;;22.75;70.59;99871.72;4377268;32;34014;-82
2022/06/04 05:29:57;;;;;;;25.17;17.80;;;;;;;22.75;70.54;99873.72;4364703;32;33545;-82
2022/06/04 05:32:24;;;;;;;20.88;13.80;;;;;;;22.74;69.96;99886.87;4365091;32;33993;-83
2022/06/04 05:34:52;;;;;;;12.18;8.13;;;;;;;22.80;69.28;99873.72;4364586;32;33628;-82
2022/06/04 05:37:20;;;;;;;9.77;6.05;;;;;;;22.71;69.69;99869.81;4364557;32;32791;-81
2022/06/04 05:39:47;;;;;;;9.88;5.35;;;;;;;22.53;70.86;99863.72;4364666;32;33344;-81
2022/06/04 05:42:18;;;;;;;9.10;5.50;;;;;;;22.69;70.01;99867.31;4377170;32;34391;-82
2022/06/04 05:44:45;;;;;;;12.45;7.60;;;;;;;22.59;70.33;99861.75;4364576;32;32632;-81
2022/06/04 05:47:14;;;;;;;8.65;4.57;;;;;;;22.64;70.55;99865.34;4361352;32;33247;-83
2022/06/04 05:49:42;;;;;;;7.95;4.20;;;;;;;22.71;69.53;99861.44;4374384;32;33805;-82
2022/06/04 05:52:13;;;;;;;10.00;5.47;;;;;;;22.71;69.51;99870.66;4361989;32;34486;-81
2022/06/04 05:54:41;;;;;;;9.20;4.50;;;;;;;22.77;69.65;99869.50;4362111;32;34006;-82
2022/06/04 05:57:08;;;;;;;9.82;4.68;;;;;;;22.80;69.73;99871.75;4362052;32;33472;-81
2022/06/04 05:59:36;;;;;;;14.45;10.80;;;;;;;22.80;69.87;99860.56;4361886;32;34683;-81
2022/06/04 06:02:04;;;;;;;12.48;6.18;;;;;;;22.76;70.11;99864.19;4349407;32;35305;-87
2022/06/04 06:04:32;;;;;;;10.50;5.20;;;;;;;22.84;69.63;99858.88;4362072;32;34590;-86
2022/06/04 06:07:00;;;;;;;9.65;7.03;;;;;;;22.93;69.05;99861.91;4349602;32;33257;-87
2022/06/04 06:09:28;;;;;;;8.82;4.93;;;;;;;22.95;68.54;99859.66;4361830;32;33659;-87
2022/06/04 06:11:56;;;;;;;9.57;4.85;;;;;;;22.76;69.33;99856.63;4361831;32;35268;-88
2022/06/04 06:14:24;;;;;;;25.40;17.45;;;;;;;22.74;69.66;99852.47;4349504;32;33940;-88
2022/06/04 06:16:53;;;;;;;12.85;6.97;;;;;;;22.87;68.93;99863.06;4349055;32;32837;-86
2022/06/04 06:19:22;;;;;;;11.40;5.20;;;;;;;22.87;68.64;99863.06;4361531;32;34617;-87
2022/06/04 06:25:33;;;;;;;13.30;7.97;;;;;;;22.85;68.60;99854.94;4363738;32;33316;-88
2022/06/04 06:28:01;;;;;;;11.77;4.93;;;;;;;22.54;69.50;99859.78;4366398;32;33182;-88
2022/06/04 06:30:29;;;;;;;12.95;5.18;;;;;;;22.69;69.06;99853.31;4366550;32;33821;-88
2022/06/04 06:32:58;;;;;;;9.35;4.28;;;;;;;22.71;69.00;99853.88;4366421;32;35468;-88
2022/06/04 06:35:26;;;;;;;11.38;4.62;;;;;;;22.73;68.66;99851.63;4353493;32;34124;-89
2022/06/04 06:37:54;;;;;;;19.52;12.25;;;;;;;22.68;68.69;99846.88;4365901;32;34168;-88
2022/06/04 06:40:21;;;;;;;11.07;5.45;;;;;;;22.62;68.92;99853.63;4353874;32;33604;-88
2022/06/04 06:42:50;;;;;;;10.48;4.37;;;;;;;22.56;69.34;99857.53;4354073;32;33857;-87
2022/06/04 06:45:18;;;;;;;9.18;3.83;;;;;;;22.74;68.79;99858.06;4366254;32;32400;-85
2022/06/04 06:47:45;;;;;;;10.02;3.75;;;;;;;22.55;69.44;99853.06;4366232;32;32967;-88
2022/06/04 06:50:15;;;;;;;9.00;4.43;;;;;;;22.61;69.21;99849.13;4365205;32;33643;-88
2022/06/04 06:52:43;;;;;;;12.43;4.87;;;;;;;22.55;69.38;99852.22;4353907;32;33614;-88
2022/06/04 06:55:11;;;;;;;8.38;4.80;;;;;;;22.50;69.69;99850.28;4366214;32;34892;-87
2022/06/04 06:57:39;;;;;;;9.10;5.05;;;;;;;22.33;70.18;99855.34;4366259;32;33316;-88
2022/06/04 07:00:07;;;;;;;10.32;5.95;;;;;;;22.34;70.61;99851.44;4366163;32;34497;-88
2022/06/04 07:02:37;;;;;;;11.05;6.20;;;;;;;22.49;70.03;99851.41;4365950;32;35304;-89
2022/06/04 07:05:06;;;;;;;7.90;4.62;;;;;;;22.49;70.06;99844.97;4353788;32;32472;-88
2022/06/04 07:07:34;;;;;;;10.57;5.47;;;;;;;22.48;70.17;99838.53;4365985;32;33232;-88
2022/06/04 07:10:03;;;;;;;9.32;5.15;;;;;;;22.56;70.14;99846.34;4366103;32;33723;-86
2022/06/04 07:12:31;;;;;;;11.20;5.40;;;;;;;22.55;70.41;99836.28;4365632;32;35192;-90
2022/06/04 07:15:01;;;;;;;9.90;5.18;;;;;;;22.64;70.41;99833.75;4353704;32;34720;-91
2022/06/04 07:17:30;;;;;;;10.70;5.45;;;;;;;22.72;70.23;99829.53;4365981;32;33234;-90
2022/06/04 07:19:58;;;;;;;11.57;6.32;;;;;;;22.75;70.43;99831.75;4365937;32;33782;-89
2022/06/04 07:22:26;;;;;;;10.02;5.72;;;;;;;22.76;70.69;99841.78;4353514;32;33070;-89
2022/06/04 07:24:55;;;;;;;10.27;6.03;;;;;;;22.87;70.40;99835.06;4365874;32;32597;-90
2022/06/04 07:27:23;;;;;;;10.48;5.93;;;;;;;22.97;70.23;99827.47;4353779;32;31985;-89
2022/06/04 07:29:51;;;;;;;11.10;5.28;;;;;;;22.95;70.57;99824.09;4353815;32;34759;-90
2022/06/04 07:32:22;;;;;;;9.07;5.70;;;;;;;23.09;70.33;99821.53;4365568;32;34566;-90
2022/06/04 07:34:50;;;;;;;15.15;10.70;;;;;;;23.20;70.35;99831.56;4365704;32;34544;-89
2022/06/04 07:37:17;;;;;;;19.45;9.98;;;;;;;23.30;70.06;99836.25;4350972;32;31824;-89
2022/06/04 07:39:45;;;;;;;9.82;7.32;;;;;;;23.20;71.08;99833.50;4362929;32;32326;-90
2022/06/04 07:42:20;;;;;;;10.95;5.93;;;;;;;23.27;70.90;99834.88;4351188;32;33144;-90
2022/06/04 07:44:48;;;;;;;9.68;5.47;;;;;;;23.42;70.39;99838.66;4350580;32;33371;-89
2022/06/04 07:47:16;;;;;;;10.45;5.40;;;;;;;23.44;69.96;99837.25;4366998;32;31887;-88
2022/06/04 07:49:45;;;;;;;8.38;6.12;;;;;;;23.54;69.99;99837.22;4363672;32;34860;-89
2022/06/04 07:52:12;;;;;;;11.52;5.40;;;;;;;23.61;69.71;99829.31;4362859;32;34331;-89
2022/06/04 07:54:40;;;;;;;7.87;5.18;;;;;;;23.57;69.55;99833.84;4362945;32;33921;-90
2022/06/04 07:57:08;;;;;;;8.70;5.32;;;;;;;23.59;69.60;99830.75;4350655;32;32882;-90
2022/06/04 07:59:38;;;;;;;10.10;5.10;;;;;;;23.56;70.17;99836.94;4362769;32;33493;-94
2022/06/04 08:02:06;;;;;;;7.68;5.47;;;;;;;23.61;70.88;99831.28;4363071;32;33238;-94
2022/06/04 08:04:34;;;;;;;8.05;5.53;;;;;;;23.79;70.30;99833.41;4362818;32;32422;-94
2022/06/04 08:07:04;;;;;;;11.77;5.18;;;;;;;23.90;69.89;99820.97;4362814;32;33443;-94
2022/06/04 08:09:33;;;;;;;8.68;5.32;;;;;;;23.97;69.58;99821.47;4362867;32;32312;-94
2022/06/04 08:12:01;;;;;;;8.90;5.43;;;;;;;24.10;68.37;99822.72;4362649;32;35259;-96
2022/06/04 08:14:28;;;;;;;7.65;5.60;;;;;;;24.08;67.87;99821.34;4365502;32;33536;-93
2022/06/04 08:16:59;;;;;;;8.43;5.45;;;;;;;24.29;67.07;99828.47;4356093;32;33202;-94
2022/06/04 08:19:31;;;;;;;7.47;4.97;;;;;;;24.25;66.97;99825.41;4355714;32;32207;-94
2022/06/04 08:21:58;;;;;;;9.52;5.25;;;;;;;24.29;66.92;99814.44;4367871;32;34498;-94
2022/06/04 08:24:26;;;;;;;10.70;5.72;;;;;;;24.30;66.71;99814.16;4368430;32;33432;-93
2022/06/04 08:26:58;;;;;;;7.50;5.87;;;;;;;24.48;66.19;99815.38;4357417;32;32916;-94
2022/06/04 08:29:31;;;;;;;10.23;6.28;;;;;;;24.51;66.13;99819.53;4379814;32;34561;-94
2022/06/04 08:32:01;;;;;;;9.23;6.62;;;;;;;24.54;65.65;99816.97;4367882;32;34570;-86
2022/06/04 08:34:31;;;;;;;9.38;6.15;;;;;;;24.65;65.21;99822.47;4367375;32;33984;-88
2022/06/04 08:36:59;;;;;;;11.88;6.40;;;;;;;24.68;65.04;99825.53;4355899;32;31977;-89
2022/06/04 08:39:29;;;;;;;8.07;5.35;;;;;;;24.75;64.56;99825.13;4344664;32;34164;-90
2022/06/04 08:42:10;;;;;;;12.65;7.07;;;;;;;24.76;64.04;99815.56;4357704;32;32981;-90
2022/06/04 08:44:42;;;;;;;9.40;6.85;;;;;;;24.61;65.18;99823.06;4357593;32;32901;-90
2022/06/04 08:47:15;;;;;;;17.70;13.38;;;;;;;24.75;64.56;99819.53;4374687;32;33425;-91
2022/06/04 08:49:49;;;;;;;17.90;13.82;;;;;;;24.68;65.67;99830.31;4369076;32;32340;-91
2022/06/04 08:52:54;;;;;;;10.35;6.53;;;;;;;24.65;65.82;99823.31;4369849;32;35150;-88
2022/06/04 08:58:33;;;;;;;7.37;4.78;;;;;;;24.61;65.22;99834.28;4361958;32;31349;-90
2022/06/04 09:01:07;;;;;;;12.63;5.53;;;;;;;24.83;64.35;99830.09;4357053;32;33863;-91
2022/06/04 09:03:48;;;;;;;7.68;4.82;;;;;;;24.74;64.29;99829.06;4358964;32;34111;-90
2022/06/04 09:06:38;;;;;;;11.35;4.90;;;;;;;24.73;64.24;99833.84;4364536;32;33420;-91
2022/06/04 09:09:17;;;;;;;10.88;4.90;;;;;;;24.81;63.82;99835.16;4352903;32;34265;-91
2022/06/04 09:11:54;;;;;;;7.93;5.07;;;;;;;24.82;64.32;99836.84;4364986;32;33759;-90
2022/06/04 09:14:36;;;;;;;8.15;5.12;;;;;;;24.86;64.34;99832.31;4364569;32;33277;-90
2022/06/04 09:17:14;;;;;;;8.57;5.40;;;;;;;24.89;64.16;99840.97;4364799;32;34044;-91
2022/06/04 09:19:47;;;;;;;7.30;4.68;;;;;;;24.77;64.19;99834.09;4352076;32;31832;-92
2022/06/04 09:22:22;;;;;;;8.73;5.20;;;;;;;24.89;63.75;99837.31;4352338;32;33040;-91
2022/06/04 09:24:50;;;;;;;;;;;;;;;24.78;63.91;99838.56;4365147;32;34522;-90
2022/06/04 09:27:45;;;;;;;7.78;4.10;;;;;;;24.71;64.17;99833.31;4352486;32;32611;-91
2022/06/04 09:30:29;;;;;;;7.87;4.43;;;;;;;24.56;64.27;99837.16;4352591;32;33142;-91
2022/06/04 09:32:57;;;;;;;8.07;4.45;;;;;;;24.75;64.08;99825.97;4364510;32;33655;-90
2022/06/04 09:35:31;;;;;;;6.65;3.00;;;;;;;24.77;64.74;99831.28;4364739;32;34417;-92
2022/06/04 09:37:59;;;;;;;6.25;2.90;;;;;;;24.90;63.31;99827.75;4352672;32;34299;-91
2022/06/04 09:40:33;;;;;;;6.15;2.83;;;;;;;24.91;62.31;99826.63;4352445;32;31934;-90
2022/06/04 09:43:05;;;;;;;6.05;2.22;;;;;;;25.17;61.14;99821.53;4352878;32;34485;-92
2022/06/04 09:45:58;;;;;;;4.22;2.40;;;;;;;25.31;60.46;99816.00;4364321;32;32782;-92
2022/06/04 09:48:30;;;;;;;4.03;1.98;;;;;;;25.50;61.34;99817.66;4364579;32;34082;-92
2022/06/04 09:51:04;;;;;;;5.40;2.30;;;;;;;25.76;58.58;99820.09;4365933;32;33340;-89
2022/06/04 09:53:43;;;;;;;6.00;2.28;;;;;;;25.96;57.82;99822.56;4352339;32;32539;-90
2022/06/04 09:56:19;;;;;;;6.55;1.87;;;;;;;26.04;58.28;99827.47;4364765;32;35339;-90
2022/06/04 09:58:47;;;;;;;5.75;1.77;;;;;;;26.39;56.52;99814.75;4351920;32;33250;-84
2022/06/04 10:01:18;;;;;;;3.30;1.50;;;;;;;26.58;55.96;99821.16;4363785;32;33539;-81
2022/06/04 10:03:58;;;;;;;4.28;1.50;;;;;;;26.62;54.56;99828.97;4364722;32;34065;-80
2022/06/04 10:06:28;;;;;;;8.02;2.05;;;;;;;26.71;54.31;99815.81;4369945;32;32763;-81
2022/06/04 10:11:52;;;;;;;4.22;1.40;;;;;;;26.63;53.16;99830.63;4371160;32;32865;-81
2022/06/04 10:14:34;;;;;;;3.92;1.60;;;;;;;26.10;52.26;99822.59;4358193;32;33248;-87
2022/06/04 10:17:03;;;;;;;3.37;1.70;;;;;;;26.54;52.23;99828.53;4351183;32;33238;-89
2022/06/04 10:19:33;;;;;;;13.18;2.42;;;;;;;26.91;52.28;99826.66;4369520;32;34839;-86
2022/06/04 10:22:04;;;;;;;4.70;1.62;;;;;;;27.21;53.24;99816.75;4357997;32;32016;-82
2022/06/04 10:24:51;;;;;;;7.62;1.80;;;;;;;27.26;49.97;99818.63;4369709;32;34356;-81
2022/06/04 10:27:44;;;;;;;6.82;1.85;;;;;;;27.48;50.64;99825.09;4382711;32;34637;-81
2022/06/04 10:30:24;;;;;;;6.00;1.75;;;;;;;27.14;50.92;99830.44;4354183;32;32569;-81
2022/06/04 10:32:57;;;;;;;5.45;1.62;;;;;;;26.83;51.96;99831.03;4356980;32;33091;-81
2022/06/04 10:35:30;;;;;;;4.87;1.75;;;;;;;26.75;52.28;99833.75;4353243;32;33212;-81
2022/06/04 10:38:31;;;;;;;4.25;1.83;;;;;;;26.65;52.67;99828.34;4354846;32;35264;-81
2022/06/04 10:41:12;;;;;;;3.72;2.00;;;;;;;26.83;53.29;99831.03;4364924;32;34184;-82
2022/06/04 10:43:45;;;;;;;4.75;1.90;;;;;;;27.14;53.57;99831.25;4365983;32;33101;-80
2022/06/04 10:46:36;;;;;;;5.80;2.12;;;;;;;27.03;52.22;99832.63;4372834;32;33709;-81
2022/06/04 10:49:26;;;;;;;5.68;1.98;;;;;;;26.63;54.14;99836.28;4363964;32;35127;-85
2022/06/04 10:52:09;;;;;;;6.75;2.20;;;;;;;26.87;55.48;99834.06;4363852;32;33848;-85
2022/06/04 10:55:02;;;;;;;5.03;2.28;;;;;;;26.83;54.20;99831.03;4363856;32;34225;-85
2022/06/04 10:57:43;;;;;;;5.80;1.87;;;;;;;27.18;53.53;99835.13;4363921;32;33675;-85
2022/06/04 11:00:18;;;;;;;4.12;2.00;;;;;;;27.01;51.57;99843.38;4351724;32;34657;-85
2022/06/04 11:02:49;;;;;;;7.75;2.28;;;;;;;27.66;52.88;99847.84;4363900;32;34891;-86
2022/06/04 11:05:37;;;;;;;4.55;2.30;;;;;;;27.59;52.92;99853.06;4363649;32;33285;-92
2022/06/04 11:08:40;;;;;;;5.05;3.08;;;;;;;27.56;52.02;99854.53;4351315;32;32066;-88
2022/06/04 11:11:37;;;;;;;16.85;11.27;;;;;;;27.53;50.17;99849.53;4336307;32;35220;-83
2022/06/04 11:14:10;;;;;;;4.82;2.47;;;;;;;27.87;51.94;99855.50;4353600;32;34650;-94
2022/06/04 11:16:42;;;;;;;5.65;3.10;;;;;;;27.96;52.07;99857.53;4365573;32;33415;-91
2022/06/04 11:19:27;;;;;;;6.43;3.83;;;;;;;27.56;51.23;99865.81;4361581;32;32300;-91
2022/06/04 11:22:35;;;;;;;4.35;2.00;;;;;;;27.74;49.53;99864.84;4365357;32;35249;-93
2022/06/04 11:25:15;;;;;;;7.03;2.95;;;;;;;27.98;49.97;99855.22;4342436;32;33928;-93
2022/06/04 11:27:55;;;;;;;5.65;2.28;;;;;;;28.25;50.99;99865.59;4365501;32;33805;-84
2022/06/04 11:30:43;;;;;;;8.23;3.95;;;;;;;27.84;50.84;99875.91;4366010;32;34532;-86
2022/06/04 11:33:36;;;;;;;5.43;2.67;;;;;;;28.03;53.02;99869.22;4346877;32;34341;-83
2022/06/04 11:36:17;;;;;;;3.80;2.00;;;;;;;27.67;48.89;99870.09;4373186;32;33799;-92
2022/06/04 11:39:05;;;;;;;2.70;1.65;;;;;;;27.96;46.98;99863.19;4345526;32;31834;-95
2022/06/04 11:41:41;;;;;;;5.03;2.20;;;;;;;27.72;47.60;99866.31;4331823;32;33204;-95
2022/06/04 11:44:24;;;;;;;5.05;2.30;;;;;;;27.87;49.14;99871.59;4338438;32;33863;-96
2022/06/04 11:46:52;;;;;;;3.87;1.95;;;;;;;27.82;49.42;99866.09;4363200;32;34787;-89
2022/06/04 11:49:46;;;;;;;4.72;2.20;;;;;;;27.73;49.18;99868.00;4365318;32;34179;-88
2022/06/04 11:52:17;;;;;;;4.30;2.30;;;;;;;27.74;48.19;99870.50;4362529;32;32446;-93
2022/06/04 11:55:20;;;;;;;4.40;2.55;;;;;;;27.54;50.97;99868.94;4362397;32;33002;-87
2022/06/04 11:58:00;;;;;;;3.72;2.30;;;;;;;27.80;49.70;99859.94;4362327;32;33362;-91
2022/06/04 12:00:33;;;;;;;5.68;2.47;;;;;;;27.70;49.96;99872.28;4374296;32;32922;-91
2022/06/04 12:03:01;;;;;;;5.22;2.67;;;;;;;27.75;48.97;99882.62;4338329;32;33643;-89
2022/06/04 12:05:38;;;;;;;6.70;2.72;;;;;;;27.79;50.34;99875.19;4361948;32;33796;-89
2022/06/04 12:08:13;;;;;;;6.28;2.90;;;;;;;27.87;49.43;99878.06;4362218;32;32467;-88
2022/06/04 12:10:41;;;;;;;4.37;2.70;;;;;;;27.86;50.56;99881.22;4364047;32;31777;-89
2022/06/04 12:13:34;;;;;;;5.05;2.10;;;;;;;27.99;47.34;99880.31;4364926;32;33555;-89
2022/06/04 12:16:13;;;;;;;4.18;2.20;;;;;;;27.02;48.76;99884.47;4377618;32;34279;-89
2022/06/04 12:18:57;;;;;;;4.40;2.20;;;;;;;27.70;48.08;99880.75;4365332;32;33124;-89